sensor_id;sensor_type;location;lat;lon;timestamp;P1;durP1;ratioP1;P2;durP2;ratioP2
5684;SDS011;2865;53.114;9.130;2023-05-07T00:02:17;18.70;;;13.63;;
5684;SDS011;2865;53.114;9.130;2023-05-07T00:04:50;15.07;;;12.50;;
5684;SDS011;2865;53.114;9.130;2023-05-07T00:07:15;17.50;;;13.50;;
5684;SDS011;2865;53.114;9.130;2023-05-07T00:09:41;17.97;;;13.07;;
5684;SDS011;2865;53.114;9.130;2023-05-07T00:12:06;16.67;;;13.27;;
5684;SDS011;2865;53.114;9.130;2023-05-07T00:14:31;19.20;;;14.03;;
5684;SDS011;2865;53.114;9.130;2023-05-07T00:16:57;18.90;;;14.13;;
5684;SDS011;2865;53.114;9.130;2023-05-07T00:19:22;17.27;;;13.43;;
5684;SDS011;2865;53.114;9.130;2023-05-07T00:21:48;19.40;;;15.13;;
5684;SDS011;2865;53.114;9.130;2023-05-07T00:24:13;19.20;;;15.50;;
5684;SDS011;2865;53.114;9.130;2023-05-07T00:26:38;20.50;;;14.33;;
5684;SDS011;2865;53.114;9.130;2023-05-07T00:29:04;18.00;;;13.97;;
5684;SDS011;2865;53.114;9.130;2023-05-07T00:31:29;20.53;;;13.90;;
5684;SDS011;2865;53.114;9.130;2023-05-07T00:33:55;16.87;;;13.60;;
5684;SDS011;2865;53.114;9.130;2023-05-07T00:36:20;18.73;;;14.23;;
5684;SDS011;2865;53.114;9.130;2023-05-07T00:38:46;19.40;;;13.50;;
5684;SDS011;2865;53.114;9.130;2023-05-07T00:41:11;18.23;;;14.13;;
5684;SDS011;2865;53.114;9.130;2023-05-07T00:43:36;17.50;;;13.40;;
5684;SDS011;2865;53.114;9.130;2023-05-07T00:46:02;16.57;;;13.77;;
5684;SDS011;2865;53.114;9.130;2023-05-07T00:48:27;15.20;;;13.07;;
5684;SDS011;2865;53.114;9.130;2023-05-07T00:50:52;14.50;;;12.80;;
5684;SDS011;2865;53.114;9.130;2023-05-07T00:53:18;16.13;;;13.13;;
5684;SDS011;2865;53.114;9.130;2023-05-07T00:55:43;18.27;;;13.77;;
5684;SDS011;2865;53.114;9.130;2023-05-07T00:58:09;20.10;;;15.20;;
5684;SDS011;2865;53.114;9.130;2023-05-07T01:00:34;17.60;;;14.03;;
5684;SDS011;2865;53.114;9.130;2023-05-07T01:02:59;17.70;;;14.73;;
5684;SDS011;2865;53.114;9.130;2023-05-07T01:05:25;23.73;;;15.40;;
5684;SDS011;2865;53.114;9.130;2023-05-07T01:07:50;20.77;;;14.87;;
5684;SDS011;2865;53.114;9.130;2023-05-07T01:10:16;16.47;;;13.20;;
5684;SDS011;2865;53.114;9.130;2023-05-07T01:12:41;17.23;;;13.13;;
5684;SDS011;2865;53.114;9.130;2023-05-07T01:15:07;16.83;;;13.10;;
5684;SDS011;2865;53.114;9.130;2023-05-07T01:17:33;16.20;;;12.87;;
5684;SDS011;2865;53.114;9.130;2023-05-07T01:19:58;18.73;;;13.50;;
5684;SDS011;2865;53.114;9.130;2023-05-07T01:22:28;15.10;;;13.37;;
5684;SDS011;2865;53.114;9.130;2023-05-07T01:24:55;15.53;;;12.30;;
5684;SDS011;2865;53.114;9.130;2023-05-07T01:27:21;16.80;;;12.23;;
5684;SDS011;2865;53.114;9.130;2023-05-07T01:29:46;18.00;;;13.53;;
5684;SDS011;2865;53.114;9.130;2023-05-07T01:32:13;15.43;;;12.53;;
5684;SDS011;2865;53.114;9.130;2023-05-07T01:34:39;17.77;;;12.80;;
5684;SDS011;2865;53.114;9.130;2023-05-07T01:37:04;17.20;;;12.37;;
5684;SDS011;2865;53.114;9.130;2023-05-07T01:39:29;16.67;;;12.33;;
5684;SDS011;2865;53.114;9.130;2023-05-07T01:41:55;18.17;;;13.23;;
5684;SDS011;2865;53.114;9.130;2023-05-07T01:44:20;18.13;;;13.20;;
5684;SDS011;2865;53.114;9.130;2023-05-07T01:46:46;18.83;;;13.10;;
5684;SDS011;2865;53.114;9.130;2023-05-07T01:49:11;14.93;;;12.00;;
5684;SDS011;2865;53.114;9.130;2023-05-07T01:51:37;16.13;;;12.57;;
5684;SDS011;2865;53.114;9.130;2023-05-07T01:54:02;16.07;;;11.33;;
5684;SDS011;2865;53.114;9.130;2023-05-07T01:56:28;15.60;;;12.00;;
5684;SDS011;2865;53.114;9.130;2023-05-07T01:58:53;16.53;;;12.30;;
5684;SDS011;2865;53.114;9.130;2023-05-07T02:01:18;17.23;;;13.13;;
5684;SDS011;2865;53.114;9.130;2023-05-07T02:03:44;14.10;;;12.43;;
5684;SDS011;2865;53.114;9.130;2023-05-07T02:06:09;18.27;;;13.77;;
5684;SDS011;2865;53.114;9.130;2023-05-07T02:08:35;16.23;;;11.67;;
5684;SDS011;2865;53.114;9.130;2023-05-07T02:11:00;19.87;;;12.60;;
5684;SDS011;2865;53.114;9.130;2023-05-07T02:13:28;15.30;;;13.30;;
5684;SDS011;2865;53.114;9.130;2023-05-07T02:15:53;13.23;;;11.70;;
5684;SDS011;2865;53.114;9.130;2023-05-07T02:18:18;15.73;;;13.10;;
5684;SDS011;2865;53.114;9.130;2023-05-07T02:20:44;15.53;;;12.30;;
5684;SDS011;2865;53.114;9.130;2023-05-07T02:23:09;16.10;;;13.50;;
5684;SDS011;2865;53.114;9.130;2023-05-07T02:25:35;18.80;;;13.73;;
5684;SDS011;2865;53.114;9.130;2023-05-07T02:28:00;16.50;;;11.83;;
5684;SDS011;2865;53.114;9.130;2023-05-07T02:30:25;17.43;;;12.07;;
5684;SDS011;2865;53.114;9.130;2023-05-07T02:32:51;16.07;;;11.93;;
5684;SDS011;2865;53.114;9.130;2023-05-07T02:35:16;15.83;;;12.83;;
5684;SDS011;2865;53.114;9.130;2023-05-07T02:37:42;14.87;;;12.87;;
5684;SDS011;2865;53.114;9.130;2023-05-07T02:40:08;18.43;;;12.67;;
5684;SDS011;2865;53.114;9.130;2023-05-07T02:42:34;13.90;;;11.00;;
5684;SDS011;2865;53.114;9.130;2023-05-07T02:44:59;15.23;;;11.70;;
5684;SDS011;2865;53.114;9.130;2023-05-07T02:47:25;15.90;;;11.70;;
5684;SDS011;2865;53.114;9.130;2023-05-07T02:49:50;13.50;;;11.23;;
5684;SDS011;2865;53.114;9.130;2023-05-07T02:52:15;17.83;;;13.17;;
5684;SDS011;2865;53.114;9.130;2023-05-07T02:54:41;14.23;;;11.50;;
5684;SDS011;2865;53.114;9.130;2023-05-07T02:57:06;14.40;;;11.30;;
5684;SDS011;2865;53.114;9.130;2023-05-07T02:59:31;15.60;;;11.53;;
5684;SDS011;2865;53.114;9.130;2023-05-07T03:01:57;13.53;;;11.40;;
5684;SDS011;2865;53.114;9.130;2023-05-07T03:04:22;19.03;;;13.17;;
5684;SDS011;2865;53.114;9.130;2023-05-07T03:06:47;15.10;;;11.83;;
5684;SDS011;2865;53.114;9.130;2023-05-07T03:09:13;15.83;;;11.30;;
5684;SDS011;2865;53.114;9.130;2023-05-07T03:11:38;14.60;;;11.73;;
5684;SDS011;2865;53.114;9.130;2023-05-07T03:14:04;15.47;;;11.30;;
5684;SDS011;2865;53.114;9.130;2023-05-07T03:16:29;12.17;;;10.97;;
5684;SDS011;2865;53.114;9.130;2023-05-07T03:18:54;13.87;;;10.60;;
5684;SDS011;2865;53.114;9.130;2023-05-07T03:21:20;14.67;;;10.60;;
5684;SDS011;2865;53.114;9.130;2023-05-07T03:23:45;14.37;;;12.03;;
5684;SDS011;2865;53.114;9.130;2023-05-07T03:26:11;13.40;;;11.33;;
5684;SDS011;2865;53.114;9.130;2023-05-07T03:28:37;16.10;;;11.13;;
5684;SDS011;2865;53.114;9.130;2023-05-07T03:31:02;13.40;;;10.83;;
5684;SDS011;2865;53.114;9.130;2023-05-07T03:33:27;16.67;;;11.50;;
5684;SDS011;2865;53.114;9.130;2023-05-07T03:35:53;14.40;;;12.20;;
5684;SDS011;2865;53.114;9.130;2023-05-07T03:38:19;11.77;;;9.47;;
5684;SDS011;2865;53.114;9.130;2023-05-07T03:40:45;15.60;;;11.83;;
5684;SDS011;2865;53.114;9.130;2023-05-07T03:43:11;11.60;;;10.40;;
5684;SDS011;2865;53.114;9.130;2023-05-07T03:45:37;13.23;;;10.67;;
5684;SDS011;2865;53.114;9.130;2023-05-07T03:48:03;14.83;;;11.40;;
5684;SDS011;2865;53.114;9.130;2023-05-07T03:50:29;10.80;;;9.37;;
5684;SDS011;2865;53.114;9.130;2023-05-07T03:52:54;13.67;;;10.70;;
5684;SDS011;2865;53.114;9.130;2023-05-07T03:55:20;12.30;;;10.30;;
5684;SDS011;2865;53.114;9.130;2023-05-07T03:57:45;11.63;;;10.37;;
5684;SDS011;2865;53.114;9.130;2023-05-07T04:00:12;12.10;;;10.43;;
5684;SDS011;2865;53.114;9.130;2023-05-07T04:02:38;13.53;;;11.13;;
5684;SDS011;2865;53.114;9.130;2023-05-07T04:05:04;14.10;;;10.83;;
5684;SDS011;2865;53.114;9.130;2023-05-07T04:07:29;17.47;;;11.43;;
5684;SDS011;2865;53.114;9.130;2023-05-07T04:09:54;11.80;;;10.60;;
5684;SDS011;2865;53.114;9.130;2023-05-07T04:12:20;10.93;;;9.80;;
5684;SDS011;2865;53.114;9.130;2023-05-07T04:14:45;13.50;;;10.70;;
5684;SDS011;2865;53.114;9.130;2023-05-07T04:17:11;12.10;;;10.03;;
5684;SDS011;2865;53.114;9.130;2023-05-07T04:19:36;12.53;;;9.90;;
5684;SDS011;2865;53.114;9.130;2023-05-07T04:22:02;13.87;;;10.37;;
5684;SDS011;2865;53.114;9.130;2023-05-07T04:24:27;12.10;;;10.60;;
5684;SDS011;2865;53.114;9.130;2023-05-07T04:26:52;15.80;;;11.20;;
5684;SDS011;2865;53.114;9.130;2023-05-07T04:29:18;11.90;;;9.63;;
5684;SDS011;2865;53.114;9.130;2023-05-07T04:31:43;14.53;;;10.90;;
5684;SDS011;2865;53.114;9.130;2023-05-07T04:34:09;12.97;;;10.87;;
5684;SDS011;2865;53.114;9.130;2023-05-07T04:36:34;14.03;;;10.87;;
5684;SDS011;2865;53.114;9.130;2023-05-07T04:38:59;14.10;;;11.40;;
5684;SDS011;2865;53.114;9.130;2023-05-07T04:41:25;13.00;;;11.63;;
5684;SDS011;2865;53.114;9.130;2023-05-07T04:43:50;14.70;;;12.00;;
5684;SDS011;2865;53.114;9.130;2023-05-07T04:46:15;14.57;;;10.93;;
5684;SDS011;2865;53.114;9.130;2023-05-07T04:48:41;15.77;;;11.53;;
5684;SDS011;2865;53.114;9.130;2023-05-07T04:51:06;12.67;;;11.30;;
5684;SDS011;2865;53.114;9.130;2023-05-07T04:53:32;13.23;;;11.30;;
5684;SDS011;2865;53.114;9.130;2023-05-07T04:55:57;11.70;;;9.90;;
5684;SDS011;2865;53.114;9.130;2023-05-07T04:58:23;11.70;;;10.50;;
5684;SDS011;2865;53.114;9.130;2023-05-07T05:00:48;12.40;;;10.93;;
5684;SDS011;2865;53.114;9.130;2023-05-07T05:03:13;11.63;;;9.40;;
5684;SDS011;2865;53.114;9.130;2023-05-07T05:05:39;13.73;;;10.03;;
5684;SDS011;2865;53.114;9.130;2023-05-07T05:08:04;11.13;;;9.40;;
5684;SDS011;2865;53.114;9.130;2023-05-07T05:10:30;10.37;;;9.33;;
5684;SDS011;2865;53.114;9.130;2023-05-07T05:12:55;10.00;;;9.00;;
5684;SDS011;2865;53.114;9.130;2023-05-07T05:15:21;11.13;;;9.33;;
5684;SDS011;2865;53.114;9.130;2023-05-07T05:17:46;10.53;;;8.77;;
5684;SDS011;2865;53.114;9.130;2023-05-07T05:20:12;9.37;;;8.47;;
5684;SDS011;2865;53.114;9.130;2023-05-07T05:22:37;8.60;;;7.80;;
5684;SDS011;2865;53.114;9.130;2023-05-07T05:25:03;8.47;;;7.67;;
5684;SDS011;2865;53.114;9.130;2023-05-07T05:27:29;11.30;;;8.13;;
5684;SDS011;2865;53.114;9.130;2023-05-07T05:29:54;8.90;;;7.70;;
5684;SDS011;2865;53.114;9.130;2023-05-07T05:32:19;9.50;;;7.70;;
5684;SDS011;2865;53.114;9.130;2023-05-07T05:34:45;8.43;;;7.37;;
5684;SDS011;2865;53.114;9.130;2023-05-07T05:37:10;8.33;;;7.37;;
5684;SDS011;2865;53.114;9.130;2023-05-07T05:39:36;8.40;;;7.60;;
5684;SDS011;2865;53.114;9.130;2023-05-07T05:42:01;10.20;;;7.90;;
5684;SDS011;2865;53.114;9.130;2023-05-07T05:44:27;9.63;;;8.63;;
5684;SDS011;2865;53.114;9.130;2023-05-07T05:46:52;12.50;;;8.70;;
5684;SDS011;2865;53.114;9.130;2023-05-07T05:49:17;9.27;;;7.40;;
5684;SDS011;2865;53.114;9.130;2023-05-07T05:51:43;9.77;;;8.77;;
5684;SDS011;2865;53.114;9.130;2023-05-07T05:54:08;8.90;;;7.90;;
5684;SDS011;2865;53.114;9.130;2023-05-07T05:56:33;7.83;;;7.13;;
5684;SDS011;2865;53.114;9.130;2023-05-07T05:58:59;12.03;;;8.13;;
5684;SDS011;2865;53.114;9.130;2023-05-07T06:01:24;8.93;;;8.03;;
5684;SDS011;2865;53.114;9.130;2023-05-07T06:03:50;8.50;;;7.70;;
5684;SDS011;2865;53.114;9.130;2023-05-07T06:06:15;8.33;;;7.53;;
5684;SDS011;2865;53.114;9.130;2023-05-07T06:08:41;9.87;;;8.60;;
5684;SDS011;2865;53.114;9.130;2023-05-07T06:11:06;8.83;;;7.93;;
5684;SDS011;2865;53.114;9.130;2023-05-07T06:13:31;9.13;;;8.23;;
5684;SDS011;2865;53.114;9.130;2023-05-07T06:15:57;8.33;;;7.43;;
5684;SDS011;2865;53.114;9.130;2023-05-07T06:18:22;8.17;;;7.37;;
5684;SDS011;2865;53.114;9.130;2023-05-07T06:20:47;9.67;;;7.90;;
5684;SDS011;2865;53.114;9.130;2023-05-07T06:23:13;7.53;;;6.83;;
5684;SDS011;2865;53.114;9.130;2023-05-07T06:25:38;8.80;;;7.30;;
5684;SDS011;2865;53.114;9.130;2023-05-07T06:28:03;12.13;;;7.00;;
5684;SDS011;2865;53.114;9.130;2023-05-07T06:30:29;7.00;;;6.30;;
5684;SDS011;2865;53.114;9.130;2023-05-07T06:32:54;8.00;;;7.20;;
5684;SDS011;2865;53.114;9.130;2023-05-07T06:35:19;7.40;;;6.67;;
5684;SDS011;2865;53.114;9.130;2023-05-07T06:37:45;8.27;;;6.67;;
5684;SDS011;2865;53.114;9.130;2023-05-07T06:40:10;7.70;;;6.90;;
5684;SDS011;2865;53.114;9.130;2023-05-07T06:42:36;7.83;;;7.03;;
5684;SDS011;2865;53.114;9.130;2023-05-07T06:45:01;8.27;;;7.57;;
5684;SDS011;2865;53.114;9.130;2023-05-07T06:47:27;7.10;;;6.50;;
5684;SDS011;2865;53.114;9.130;2023-05-07T06:49:53;8.00;;;7.20;;
5684;SDS011;2865;53.114;9.130;2023-05-07T06:52:18;7.37;;;6.47;;
5684;SDS011;2865;53.114;9.130;2023-05-07T06:54:44;7.70;;;6.90;;
5684;SDS011;2865;53.114;9.130;2023-05-07T06:57:09;7.70;;;6.90;;
5684;SDS011;2865;53.114;9.130;2023-05-07T06:59:35;7.93;;;7.13;;
5684;SDS011;2865;53.114;9.130;2023-05-07T07:02:00;6.17;;;5.67;;
5684;SDS011;2865;53.114;9.130;2023-05-07T07:04:25;7.33;;;6.70;;
5684;SDS011;2865;53.114;9.130;2023-05-07T07:06:52;7.90;;;6.43;;
5684;SDS011;2865;53.114;9.130;2023-05-07T07:09:17;6.30;;;5.80;;
5684;SDS011;2865;53.114;9.130;2023-05-07T07:11:42;7.37;;;6.67;;
5684;SDS011;2865;53.114;9.130;2023-05-07T07:14:08;6.90;;;6.37;;
5684;SDS011;2865;53.114;9.130;2023-05-07T07:16:33;6.67;;;6.03;;
5684;SDS011;2865;53.114;9.130;2023-05-07T07:18:59;7.53;;;6.73;;
5684;SDS011;2865;53.114;9.130;2023-05-07T07:21:24;7.50;;;6.70;;
5684;SDS011;2865;53.114;9.130;2023-05-07T07:23:50;7.10;;;6.40;;
5684;SDS011;2865;53.114;9.130;2023-05-07T07:26:15;7.43;;;6.73;;
5684;SDS011;2865;53.114;9.130;2023-05-07T07:28:42;7.07;;;6.40;;
5684;SDS011;2865;53.114;9.130;2023-05-07T07:31:07;6.83;;;6.23;;
5684;SDS011;2865;53.114;9.130;2023-05-07T07:33:32;6.50;;;5.93;;
5684;SDS011;2865;53.114;9.130;2023-05-07T07:35:57;7.50;;;6.80;;
5684;SDS011;2865;53.114;9.130;2023-05-07T07:38:23;10.20;;;7.17;;
5684;SDS011;2865;53.114;9.130;2023-05-07T07:40:48;7.13;;;6.40;;
5684;SDS011;2865;53.114;9.130;2023-05-07T07:43:13;7.30;;;6.70;;
5684;SDS011;2865;53.114;9.130;2023-05-07T07:45:39;7.03;;;6.37;;
5684;SDS011;2865;53.114;9.130;2023-05-07T07:48:05;7.53;;;6.80;;
5684;SDS011;2865;53.114;9.130;2023-05-07T07:50:30;7.37;;;6.67;;
5684;SDS011;2865;53.114;9.130;2023-05-07T07:52:55;7.73;;;7.00;;
5684;SDS011;2865;53.114;9.130;2023-05-07T07:55:22;8.03;;;7.23;;
5684;SDS011;2865;53.114;9.130;2023-05-07T07:57:46;16.63;;;7.37;;
5684;SDS011;2865;53.114;9.130;2023-05-07T08:00:12;8.50;;;7.60;;
5684;SDS011;2865;53.114;9.130;2023-05-07T08:02:38;7.90;;;7.20;;
5684;SDS011;2865;53.114;9.130;2023-05-07T08:05:04;8.00;;;6.80;;
5684;SDS011;2865;53.114;9.130;2023-05-07T08:07:29;7.90;;;7.20;;
5684;SDS011;2865;53.114;9.130;2023-05-07T08:09:55;8.00;;;7.30;;
5684;SDS011;2865;53.114;9.130;2023-05-07T08:12:20;6.47;;;5.87;;
5684;SDS011;2865;53.114;9.130;2023-05-07T08:14:46;6.90;;;6.30;;
5684;SDS011;2865;53.114;9.130;2023-05-07T08:17:11;8.40;;;7.47;;
5684;SDS011;2865;53.114;9.130;2023-05-07T08:19:36;7.40;;;6.63;;
5684;SDS011;2865;53.114;9.130;2023-05-07T08:22:02;7.57;;;6.80;;
5684;SDS011;2865;53.114;9.130;2023-05-07T08:24:27;8.63;;;7.73;;
5684;SDS011;2865;53.114;9.130;2023-05-07T08:26:52;8.00;;;7.17;;
5684;SDS011;2865;53.114;9.130;2023-05-07T08:29:18;7.47;;;6.60;;
5684;SDS011;2865;53.114;9.130;2023-05-07T08:31:43;8.27;;;7.13;;
5684;SDS011;2865;53.114;9.130;2023-05-07T08:34:08;7.07;;;6.47;;
5684;SDS011;2865;53.114;9.130;2023-05-07T08:36:34;7.10;;;6.40;;
5684;SDS011;2865;53.114;9.130;2023-05-07T08:38:59;8.23;;;7.50;;
5684;SDS011;2865;53.114;9.130;2023-05-07T08:41:25;8.30;;;7.37;;
5684;SDS011;2865;53.114;9.130;2023-05-07T08:43:50;9.60;;;6.67;;
5684;SDS011;2865;53.114;9.130;2023-05-07T08:46:17;7.53;;;6.73;;
5684;SDS011;2865;53.114;9.130;2023-05-07T08:48:43;8.03;;;6.57;;
5684;SDS011;2865;53.114;9.130;2023-05-07T08:51:11;7.17;;;6.20;;
5684;SDS011;2865;53.114;9.130;2023-05-07T08:53:34;8.00;;;7.20;;
5684;SDS011;2865;53.114;9.130;2023-05-07T08:55:59;8.13;;;7.27;;
5684;SDS011;2865;53.114;9.130;2023-05-07T08:58:24;7.43;;;6.50;;
5684;SDS011;2865;53.114;9.130;2023-05-07T09:00:50;7.17;;;6.47;;
5684;SDS011;2865;53.114;9.130;2023-05-07T09:03:15;7.90;;;7.20;;
5684;SDS011;2865;53.114;9.130;2023-05-07T09:05:41;7.33;;;6.33;;
5684;SDS011;2865;53.114;9.130;2023-05-07T09:08:08;8.03;;;7.03;;
5684;SDS011;2865;53.114;9.130;2023-05-07T09:10:33;7.40;;;6.70;;
5684;SDS011;2865;53.114;9.130;2023-05-07T09:12:59;8.37;;;7.40;;
5684;SDS011;2865;53.114;9.130;2023-05-07T09:15:25;9.10;;;6.77;;
5684;SDS011;2865;53.114;9.130;2023-05-07T09:17:50;6.83;;;6.17;;
5684;SDS011;2865;53.114;9.130;2023-05-07T09:20:16;8.27;;;7.33;;
5684;SDS011;2865;53.114;9.130;2023-05-07T09:22:41;6.90;;;6.30;;
5684;SDS011;2865;53.114;9.130;2023-05-07T09:25:07;9.17;;;8.20;;
5684;SDS011;2865;53.114;9.130;2023-05-07T09:27:33;9.10;;;8.07;;
5684;SDS011;2865;53.114;9.130;2023-05-07T09:29:59;7.50;;;6.80;;
5684;SDS011;2865;53.114;9.130;2023-05-07T09:32:24;11.30;;;7.50;;
5684;SDS011;2865;53.114;9.130;2023-05-07T09:34:50;7.60;;;6.80;;
5684;SDS011;2865;53.114;9.130;2023-05-07T09:37:15;8.83;;;7.37;;
5684;SDS011;2865;53.114;9.130;2023-05-07T09:39:44;8.37;;;7.50;;
5684;SDS011;2865;53.114;9.130;2023-05-07T09:42:10;8.47;;;7.67;;
5684;SDS011;2865;53.114;9.130;2023-05-07T09:44:36;8.87;;;7.07;;
5684;SDS011;2865;53.114;9.130;2023-05-07T09:47:01;22.67;;;8.47;;
5684;SDS011;2865;53.114;9.130;2023-05-07T09:49:28;8.00;;;7.20;;
5684;SDS011;2865;53.114;9.130;2023-05-07T09:51:52;7.40;;;6.70;;
5684;SDS011;2865;53.114;9.130;2023-05-07T09:54:18;10.90;;;7.90;;
5684;SDS011;2865;53.114;9.130;2023-05-07T09:56:44;7.57;;;6.80;;
5684;SDS011;2865;53.114;9.130;2023-05-07T09:59:10;7.40;;;6.70;;
5684;SDS011;2865;53.114;9.130;2023-05-07T10:01:38;8.47;;;6.70;;
5684;SDS011;2865;53.114;9.130;2023-05-07T10:04:03;8.13;;;7.33;;
5684;SDS011;2865;53.114;9.130;2023-05-07T10:06:29;9.97;;;7.20;;
5684;SDS011;2865;53.114;9.130;2023-05-07T10:08:55;10.13;;;6.93;;
5684;SDS011;2865;53.114;9.130;2023-05-07T10:11:20;9.83;;;7.57;;
5684;SDS011;2865;53.114;9.130;2023-05-07T10:13:46;7.37;;;6.67;;
5684;SDS011;2865;53.114;9.130;2023-05-07T10:16:11;8.47;;;6.63;;
5684;SDS011;2865;53.114;9.130;2023-05-07T10:18:36;7.23;;;6.20;;
5684;SDS011;2865;53.114;9.130;2023-05-07T10:21:04;7.70;;;6.73;;
5684;SDS011;2865;53.114;9.130;2023-05-07T10:23:27;6.90;;;6.20;;
5684;SDS011;2865;53.114;9.130;2023-05-07T10:25:52;6.37;;;5.73;;
5684;SDS011;2865;53.114;9.130;2023-05-07T10:28:18;8.07;;;6.97;;
5684;SDS011;2865;53.114;9.130;2023-05-07T10:33:15;7.40;;;6.70;;
5684;SDS011;2865;53.114;9.130;2023-05-07T10:35:41;8.33;;;7.20;;
5684;SDS011;2865;53.114;9.130;2023-05-07T10:38:06;7.90;;;6.27;;
5684;SDS011;2865;53.114;9.130;2023-05-07T10:40:31;8.50;;;7.00;;
5684;SDS011;2865;53.114;9.130;2023-05-07T10:42:57;6.53;;;5.63;;
5684;SDS011;2865;53.114;9.130;2023-05-07T10:45:22;7.20;;;6.53;;
5684;SDS011;2865;53.114;9.130;2023-05-07T10:48:05;8.83;;;7.63;;
5684;SDS011;2865;53.114;9.130;2023-05-07T10:50:22;7.50;;;6.80;;
5684;SDS011;2865;53.114;9.130;2023-05-07T10:53:05;8.10;;;6.50;;
5684;SDS011;2865;53.114;9.130;2023-05-07T10:57:47;6.90;;;6.20;;
5684;SDS011;2865;53.114;9.130;2023-05-07T11:03:09;6.83;;;6.13;;
5684;SDS011;2865;53.114;9.130;2023-05-07T11:05:34;7.10;;;6.40;;
5684;SDS011;2865;53.114;9.130;2023-05-07T11:08:01;7.50;;;6.70;;
5684;SDS011;2865;53.114;9.130;2023-05-07T11:11:02;7.47;;;6.17;;
5684;SDS011;2865;53.114;9.130;2023-05-07T11:13:14;7.37;;;6.60;;
5684;SDS011;2865;53.114;9.130;2023-05-07T11:15:41;6.80;;;6.10;;
5684;SDS011;2865;53.114;9.130;2023-05-07T11:18:07;9.30;;;5.87;;
5684;SDS011;2865;53.114;9.130;2023-05-07T11:26:12;6.83;;;6.13;;
5684;SDS011;2865;53.114;9.130;2023-05-07T11:28:38;8.07;;;6.27;;
5684;SDS011;2865;53.114;9.130;2023-05-07T11:31:03;6.67;;;6.10;;
5684;SDS011;2865;53.114;9.130;2023-05-07T11:33:28;10.73;;;7.47;;
5684;SDS011;2865;53.114;9.130;2023-05-07T11:35:53;7.10;;;5.27;;
5684;SDS011;2865;53.114;9.130;2023-05-07T11:38:19;6.10;;;5.50;;
5684;SDS011;2865;53.114;9.130;2023-05-07T11:40:53;6.27;;;5.77;;
5684;SDS011;2865;53.114;9.130;2023-05-07T11:43:18;6.50;;;4.83;;
5684;SDS011;2865;53.114;9.130;2023-05-07T11:45:44;6.93;;;4.43;;
5684;SDS011;2865;53.114;9.130;2023-05-07T11:48:09;5.93;;;5.10;;
5684;SDS011;2865;53.114;9.130;2023-05-07T11:50:35;5.53;;;5.10;;
5684;SDS011;2865;53.114;9.130;2023-05-07T11:53:00;6.20;;;4.83;;
5684;SDS011;2865;53.114;9.130;2023-05-07T11:55:25;5.50;;;5.00;;
5684;SDS011;2865;53.114;9.130;2023-05-07T11:57:51;5.30;;;4.80;;
5684;SDS011;2865;53.114;9.130;2023-05-07T12:00:16;6.37;;;5.03;;
5684;SDS011;2865;53.114;9.130;2023-05-07T12:02:42;6.27;;;5.40;;
5684;SDS011;2865;53.114;9.130;2023-05-07T12:05:07;5.10;;;4.50;;
5684;SDS011;2865;53.114;9.130;2023-05-07T12:07:33;5.77;;;5.27;;
5684;SDS011;2865;53.114;9.130;2023-05-07T12:09:58;5.50;;;4.93;;
5684;SDS011;2865;53.114;9.130;2023-05-07T12:12:25;6.10;;;4.47;;
5684;SDS011;2865;53.114;9.130;2023-05-07T12:14:51;5.60;;;5.10;;
5684;SDS011;2865;53.114;9.130;2023-05-07T12:17:16;4.40;;;4.10;;
5684;SDS011;2865;53.114;9.130;2023-05-07T12:19:42;5.37;;;4.83;;
5684;SDS011;2865;53.114;9.130;2023-05-07T12:22:07;5.17;;;4.73;;
5684;SDS011;2865;53.114;9.130;2023-05-07T12:27:10;5.67;;;5.17;;
5684;SDS011;2865;53.114;9.130;2023-05-07T12:29:36;4.83;;;4.43;;
5684;SDS011;2865;53.114;9.130;2023-05-07T12:32:01;4.47;;;4.07;;
5684;SDS011;2865;53.114;9.130;2023-05-07T12:34:27;4.80;;;4.40;;
5684;SDS011;2865;53.114;9.130;2023-05-07T12:36:52;5.00;;;4.50;;
5684;SDS011;2865;53.114;9.130;2023-05-07T12:39:18;4.70;;;3.90;;
5684;SDS011;2865;53.114;9.130;2023-05-07T12:44:17;4.60;;;4.20;;
5684;SDS011;2865;53.114;9.130;2023-05-07T12:46:42;4.77;;;4.37;;
5684;SDS011;2865;53.114;9.130;2023-05-07T12:49:08;4.30;;;3.90;;
5684;SDS011;2865;53.114;9.130;2023-05-07T12:51:34;4.13;;;3.83;;
5684;SDS011;2865;53.114;9.130;2023-05-07T12:53:59;5.50;;;4.10;;
5684;SDS011;2865;53.114;9.130;2023-05-07T12:56:24;4.40;;;4.00;;
5684;SDS011;2865;53.114;9.130;2023-05-07T12:58:50;4.70;;;4.30;;
5684;SDS011;2865;53.114;9.130;2023-05-07T13:01:15;3.60;;;3.30;;
5684;SDS011;2865;53.114;9.130;2023-05-07T13:03:41;4.80;;;3.73;;
5684;SDS011;2865;53.114;9.130;2023-05-07T13:06:07;5.50;;;3.83;;
5684;SDS011;2865;53.114;9.130;2023-05-07T13:08:33;4.37;;;3.97;;
5684;SDS011;2865;53.114;9.130;2023-05-07T13:10:58;4.20;;;3.80;;
5684;SDS011;2865;53.114;9.130;2023-05-07T13:13:22;5.30;;;4.30;;
5684;SDS011;2865;53.114;9.130;2023-05-07T13:15:49;4.90;;;3.80;;
5684;SDS011;2865;53.114;9.130;2023-05-07T13:18:14;4.00;;;3.60;;
5684;SDS011;2865;53.114;9.130;2023-05-07T13:20:40;4.73;;;4.27;;
5684;SDS011;2865;53.114;9.130;2023-05-07T13:23:06;3.93;;;3.63;;
5684;SDS011;2865;53.114;9.130;2023-05-07T13:25:31;4.07;;;3.77;;
5684;SDS011;2865;53.114;9.130;2023-05-07T13:27:57;4.73;;;4.37;;
5684;SDS011;2865;53.114;9.130;2023-05-07T13:30:22;5.90;;;4.53;;
5684;SDS011;2865;53.114;9.130;2023-05-07T13:32:47;4.57;;;4.17;;
5684;SDS011;2865;53.114;9.130;2023-05-07T13:35:13;3.90;;;3.60;;
5684;SDS011;2865;53.114;9.130;2023-05-07T13:37:38;4.30;;;3.90;;
5684;SDS011;2865;53.114;9.130;2023-05-07T13:40:04;4.53;;;4.17;;
5684;SDS011;2865;53.114;9.130;2023-05-07T13:42:31;4.87;;;3.60;;
5684;SDS011;2865;53.114;9.130;2023-05-07T13:44:56;4.00;;;3.70;;
5684;SDS011;2865;53.114;9.130;2023-05-07T13:47:21;4.33;;;3.93;;
5684;SDS011;2865;53.114;9.130;2023-05-07T13:49:47;3.67;;;3.37;;
5684;SDS011;2865;53.114;9.130;2023-05-07T13:52:12;8.77;;;4.33;;
5684;SDS011;2865;53.114;9.130;2023-05-07T13:54:38;4.93;;;4.50;;
5684;SDS011;2865;53.114;9.130;2023-05-07T13:57:03;4.60;;;3.97;;
5684;SDS011;2865;53.114;9.130;2023-05-07T13:59:29;4.67;;;4.13;;
5684;SDS011;2865;53.114;9.130;2023-05-07T14:01:54;3.90;;;3.60;;
5684;SDS011;2865;53.114;9.130;2023-05-07T14:04:20;4.70;;;4.30;;
5684;SDS011;2865;53.114;9.130;2023-05-07T14:06:45;5.03;;;4.47;;
5684;SDS011;2865;53.114;9.130;2023-05-07T14:09:10;5.87;;;4.47;;
5684;SDS011;2865;53.114;9.130;2023-05-07T14:11:36;4.23;;;3.83;;
5684;SDS011;2865;53.114;9.130;2023-05-07T14:14:01;5.70;;;4.20;;
5684;SDS011;2865;53.114;9.130;2023-05-07T14:16:27;4.30;;;3.90;;
5684;SDS011;2865;53.114;9.130;2023-05-07T14:18:52;3.90;;;3.60;;
5684;SDS011;2865;53.114;9.130;2023-05-07T14:21:17;3.80;;;3.50;;
5684;SDS011;2865;53.114;9.130;2023-05-07T14:23:43;4.10;;;3.70;;
5684;SDS011;2865;53.114;9.130;2023-05-07T14:26:08;4.57;;;4.17;;
5684;SDS011;2865;53.114;9.130;2023-05-07T14:28:34;6.83;;;4.23;;
5684;SDS011;2865;53.114;9.130;2023-05-07T14:30:59;4.87;;;3.80;;
5684;SDS011;2865;53.114;9.130;2023-05-07T14:33:25;4.17;;;3.87;;
5684;SDS011;2865;53.114;9.130;2023-05-07T14:35:50;3.87;;;3.57;;
5684;SDS011;2865;53.114;9.130;2023-05-07T14:38:15;4.50;;;4.10;;
5684;SDS011;2865;53.114;9.130;2023-05-07T14:40:41;5.03;;;4.50;;
5684;SDS011;2865;53.114;9.130;2023-05-07T14:43:07;4.97;;;4.47;;
5684;SDS011;2865;53.114;9.130;2023-05-07T14:45:32;4.90;;;4.40;;
5684;SDS011;2865;53.114;9.130;2023-05-07T14:47:58;4.40;;;4.00;;
5684;SDS011;2865;53.114;9.130;2023-05-07T14:50:23;4.57;;;4.20;;
5684;SDS011;2865;53.114;9.130;2023-05-07T14:52:49;7.70;;;5.00;;
5684;SDS011;2865;53.114;9.130;2023-05-07T14:55:14;4.20;;;3.90;;
5684;SDS011;2865;53.114;9.130;2023-05-07T14:57:39;5.80;;;4.30;;
5684;SDS011;2865;53.114;9.130;2023-05-07T15:00:05;4.17;;;3.77;;
5684;SDS011;2865;53.114;9.130;2023-05-07T15:02:32;10.43;;;4.00;;
5684;SDS011;2865;53.114;9.130;2023-05-07T15:04:58;4.57;;;4.07;;
5684;SDS011;2865;53.114;9.130;2023-05-07T15:07:23;4.57;;;4.17;;
5684;SDS011;2865;53.114;9.130;2023-05-07T15:09:48;4.77;;;4.37;;
5684;SDS011;2865;53.114;9.130;2023-05-07T15:12:13;4.73;;;4.33;;
5684;SDS011;2865;53.114;9.130;2023-05-07T15:14:39;4.87;;;4.17;;